sensor_id;sensor_type;location;lat;lon;timestamp;temperature;humidity
13606;DHT22;6874;52.084;5.090;2023-02-13T00:00:02;7.40;99.90
13606;DHT22;6874;52.084;5.090;2023-02-13T00:02:30;7.30;99.90
13606;DHT22;6874;52.084;5.090;2023-02-13T00:04:55;7.30;99.90
13606;DHT22;6874;52.084;5.090;2023-02-13T00:07:21;7.30;99.90
13606;DHT22;6874;52.084;5.090;2023-02-13T00:09:46;7.30;99.90
13606;DHT22;6874;52.084;5.090;2023-02-13T00:12:12;7.30;99.90
13606;DHT22;6874;52.084;5.090;2023-02-13T00:14:38;7.30;99.90
13606;DHT22;6874;52.084;5.090;2023-02-13T00:17:04;7.40;99.90
13606;DHT22;6874;52.084;5.090;2023-02-13T00:19:30;7.30;99.90
13606;DHT22;6874;52.084;5.090;2023-02-13T00:21:56;7.30;99.90
13606;DHT22;6874;52.084;5.090;2023-02-13T00:24:22;7.30;99.90
13606;DHT22;6874;52.084;5.090;2023-02-13T00:26:47;7.30;99.90
13606;DHT22;6874;52.084;5.090;2023-02-13T00:29:13;7.30;99.90
13606;DHT22;6874;52.084;5.090;2023-02-13T00:31:38;7.30;99.90
13606;DHT22;6874;52.084;5.090;2023-02-13T00:34:04;7.30;99.90
13606;DHT22;6874;52.084;5.090;2023-02-13T00:36:30;7.30;99.90
13606;DHT22;6874;52.084;5.090;2023-02-13T00:38:55;7.30;99.90
13606;DHT22;6874;52.084;5.090;2023-02-13T00:41:21;7.30;99.90
13606;DHT22;6874;52.084;5.090;2023-02-13T00:43:47;7.30;99.90
13606;DHT22;6874;52.084;5.090;2023-02-13T00:46:14;7.30;99.90
13606;DHT22;6874;52.084;5.090;2023-02-13T00:48:39;7.30;99.90
13606;DHT22;6874;52.084;5.090;2023-02-13T00:51:06;7.30;99.90
13606;DHT22;6874;52.084;5.090;2023-02-13T00:53:32;7.30;99.90
13606;DHT22;6874;52.084;5.090;2023-02-13T00:55:58;7.30;99.90
13606;DHT22;6874;52.084;5.090;2023-02-13T00:58:24;7.30;99.90
13606;DHT22;6874;52.084;5.090;2023-02-13T01:00:50;7.30;99.90
13606;DHT22;6874;52.084;5.090;2023-02-13T01:03:17;7.30;99.90
13606;DHT22;6874;52.084;5.090;2023-02-13T01:05:43;7.30;99.90
13606;DHT22;6874;52.084;5.090;2023-02-13T01:08:09;7.30;99.90
13606;DHT22;6874;52.084;5.090;2023-02-13T01:10:37;7.30;99.90
13606;DHT22;6874;52.084;5.090;2023-02-13T01:13:02;7.30;99.90
13606;DHT22;6874;52.084;5.090;2023-02-13T01:15:28;7.30;99.90
13606;DHT22;6874;52.084;5.090;2023-02-13T01:17:54;7.30;99.90
13606;DHT22;6874;52.084;5.090;2023-02-13T01:20:22;7.30;99.90
13606;DHT22;6874;52.084;5.090;2023-02-13T01:22:48;7.30;99.90
13606;DHT22;6874;52.084;5.090;2023-02-13T01:25:13;7.30;99.90
13606;DHT22;6874;52.084;5.090;2023-02-13T01:27:39;7.30;99.90
13606;DHT22;6874;52.084;5.090;2023-02-13T01:30:06;7.30;99.90
13606;DHT22;6874;52.084;5.090;2023-02-13T01:32:41;7.30;99.90
13606;DHT22;6874;52.084;5.090;2023-02-13T01:35:08;7.30;99.90
13606;DHT22;6874;52.084;5.090;2023-02-13T01:37:34;7.20;99.90
13606;DHT22;6874;52.084;5.090;2023-02-13T01:40:00;7.20;99.90
13606;DHT22;6874;52.084;5.090;2023-02-13T01:42:28;7.30;99.90
13606;DHT22;6874;52.084;5.090;2023-02-13T01:44:59;7.20;99.90
13606;DHT22;6874;52.084;5.090;2023-02-13T01:47:26;7.20;99.90
13606;DHT22;6874;52.084;5.090;2023-02-13T01:50:01;7.20;99.90
13606;DHT22;6874;52.084;5.090;2023-02-13T01:52:28;7.20;99.90
13606;DHT22;6874;52.084;5.090;2023-02-13T01:54:54;7.20;99.90
13606;DHT22;6874;52.084;5.090;2023-02-13T01:57:23;7.30;99.90
13606;DHT22;6874;52.084;5.090;2023-02-13T01:59:56;7.20;99.90
13606;DHT22;6874;52.084;5.090;2023-02-13T02:02:23;7.20;99.90
13606;DHT22;6874;52.084;5.090;2023-02-13T02:04:50;7.20;99.90
13606;DHT22;6874;52.084;5.090;2023-02-13T02:07:23;7.20;99.90
13606;DHT22;6874;52.084;5.090;2023-02-13T02:09:51;7.20;99.90
13606;DHT22;6874;52.084;5.090;2023-02-13T02:15:05;7.20;99.90
13606;DHT22;6874;52.084;5.090;2023-02-13T02:17:31;7.20;99.90
13606;DHT22;6874;52.084;5.090;2023-02-13T02:34:23;7.20;99.90
13606;DHT22;6874;52.084;5.090;2023-02-13T02:42:26;7.20;99.90
13606;DHT22;6874;52.084;5.090;2023-02-13T02:45:31;7.20;99.90
13606;DHT22;6874;52.084;5.090;2023-02-13T02:48:02;7.20;99.90
13606;DHT22;6874;52.084;5.090;2023-02-13T02:53:50;7.20;99.90
13606;DHT22;6874;52.084;5.090;2023-02-13T02:56:33;7.20;99.90
13606;DHT22;6874;52.084;5.090;2023-02-13T02:59:14;7.20;99.90
13606;DHT22;6874;52.084;5.090;2023-02-13T03:02:00;7.20;99.90
13606;DHT22;6874;52.084;5.090;2023-02-13T03:04:50;7.20;99.90
13606;DHT22;6874;52.084;5.090;2023-02-13T03:07:34;7.10;99.90
13606;DHT22;6874;52.084;5.090;2023-02-13T03:10:06;7.20;99.90
13606;DHT22;6874;52.084;5.090;2023-02-13T03:13:03;7.20;99.90
13606;DHT22;6874;52.084;5.090;2023-02-13T03:15:43;7.20;99.90
13606;DHT22;6874;52.084;5.090;2023-02-13T03:18:38;7.20;99.90
13606;DHT22;6874;52.084;5.090;2023-02-13T03:21:50;7.20;99.90
13606;DHT22;6874;52.084;5.090;2023-02-13T03:24:52;7.20;99.90
13606;DHT22;6874;52.084;5.090;2023-02-13T03:40:04;7.20;99.90
13606;DHT22;6874;52.084;5.090;2023-02-13T03:44:56;7.10;99.90
13606;DHT22;6874;52.084;5.090;2023-02-13T03:47:43;7.10;99.90
13606;DHT22;6874;52.084;5.090;2023-02-13T03:50:11;7.10;99.90
13606;DHT22;6874;52.084;5.090;2023-02-13T03:52:59;7.10;99.90
13606;DHT22;6874;52.084;5.090;2023-02-13T03:55:33;7.10;99.90
13606;DHT22;6874;52.084;5.090;2023-02-13T03:58:27;7.10;99.90
13606;DHT22;6874;52.084;5.090;2023-02-13T04:01:14;7.10;99.90
13606;DHT22;6874;52.084;5.090;2023-02-13T04:06:15;7.20;99.90
13606;DHT22;6874;52.084;5.090;2023-02-13T04:08:42;7.10;99.90
13606;DHT22;6874;52.084;5.090;2023-02-13T04:11:14;7.10;99.90
13606;DHT22;6874;52.084;5.090;2023-02-13T04:13:51;7.10;99.90
13606;DHT22;6874;52.084;5.090;2023-02-13T04:16:33;7.30;99.90
13606;DHT22;6874;52.084;5.090;2023-02-13T04:19:00;7.10;99.90
13606;DHT22;6874;52.084;5.090;2023-02-13T04:21:27;7.10;99.90
13606;DHT22;6874;52.084;5.090;2023-02-13T04:23:52;7.10;99.90
13606;DHT22;6874;52.084;5.090;2023-02-13T04:26:20;7.10;99.90
13606;DHT22;6874;52.084;5.090;2023-02-13T04:28:47;7.10;99.90
13606;DHT22;6874;52.084;5.090;2023-02-13T04:31:13;7.10;99.90
13606;DHT22;6874;52.084;5.090;2023-02-13T04:33:38;7.10;99.90
13606;DHT22;6874;52.084;5.090;2023-02-13T04:36:04;7.10;99.90
13606;DHT22;6874;52.084;5.090;2023-02-13T04:38:30;7.10;99.90
13606;DHT22;6874;52.084;5.090;2023-02-13T04:40:56;7.10;99.90
13606;DHT22;6874;52.084;5.090;2023-02-13T04:43:22;7.10;99.90
13606;DHT22;6874;52.084;5.090;2023-02-13T04:45:48;7.10;99.90
13606;DHT22;6874;52.084;5.090;2023-02-13T04:48:14;7.10;99.90
13606;DHT22;6874;52.084;5.090;2023-02-13T04:50:39;7.10;99.90
13606;DHT22;6874;52.084;5.090;2023-02-13T04:53:05;7.20;99.90
13606;DHT22;6874;52.084;5.090;2023-02-13T04:55:31;7.10;99.90
13606;DHT22;6874;52.084;5.090;2023-02-13T04:57:56;7.10;99.90
13606;DHT22;6874;52.084;5.090;2023-02-13T05:00:24;7.10;99.90
13606;DHT22;6874;52.084;5.090;2023-02-13T05:02:50;7.10;99.90
13606;DHT22;6874;52.084;5.090;2023-02-13T05:05:16;7.10;99.90
13606;DHT22;6874;52.084;5.090;2023-02-13T05:07:42;7.10;99.90
13606;DHT22;6874;52.084;5.090;2023-02-13T05:10:08;7.10;99.90
13606;DHT22;6874;52.084;5.090;2023-02-13T05:12:34;7.10;99.90
13606;DHT22;6874;52.084;5.090;2023-02-13T05:15:00;7.10;99.90
13606;DHT22;6874;52.084;5.090;2023-02-13T05:17:25;7.10;99.90
13606;DHT22;6874;52.084;5.090;2023-02-13T05:19:51;7.10;99.90
13606;DHT22;6874;52.084;5.090;2023-02-13T05:22:17;7.10;99.90
13606;DHT22;6874;52.084;5.090;2023-02-13T05:25:01;7.10;99.90
13606;DHT22;6874;52.084;5.090;2023-02-13T05:27:26;7.10;99.90
13606;DHT22;6874;52.084;5.090;2023-02-13T05:29:52;7.10;99.90
13606;DHT22;6874;52.084;5.090;2023-02-13T05:32:17;7.10;99.90
13606;DHT22;6874;52.084;5.090;2023-02-13T05:34:43;7.10;99.90
13606;DHT22;6874;52.084;5.090;2023-02-13T05:37:08;7.10;99.90
13606;DHT22;6874;52.084;5.090;2023-02-13T05:39:35;7.10;99.90
13606;DHT22;6874;52.084;5.090;2023-02-13T05:42:01;7.10;99.90
13606;DHT22;6874;52.084;5.090;2023-02-13T05:44:29;7.10;99.90
13606;DHT22;6874;52.084;5.090;2023-02-13T05:46:55;7.10;99.90
13606;DHT22;6874;52.084;5.090;2023-02-13T05:49:21;7.10;99.90
13606;DHT22;6874;52.084;5.090;2023-02-13T05:51:47;7.10;99.90
13606;DHT22;6874;52.084;5.090;2023-02-13T05:54:13;7.10;99.90
13606;DHT22;6874;52.084;5.090;2023-02-13T05:56:39;7.10;99.90
13606;DHT22;6874;52.084;5.090;2023-02-13T05:59:05;7.10;99.90
13606;DHT22;6874;52.084;5.090;2023-02-13T06:01:30;7.10;99.90
13606;DHT22;6874;52.084;5.090;2023-02-13T06:03:56;7.20;99.90
13606;DHT22;6874;52.084;5.090;2023-02-13T06:06:21;7.10;99.90
13606;DHT22;6874;52.084;5.090;2023-02-13T06:08:47;7.10;99.90
13606;DHT22;6874;52.084;5.090;2023-02-13T06:11:13;7.10;99.90
13606;DHT22;6874;52.084;5.090;2023-02-13T06:13:38;7.10;99.90
13606;DHT22;6874;52.084;5.090;2023-02-13T06:16:06;7.10;99.90
13606;DHT22;6874;52.084;5.090;2023-02-13T06:18:32;7.10;99.90
13606;DHT22;6874;52.084;5.090;2023-02-13T06:20:58;7.10;99.90
13606;DHT22;6874;52.084;5.090;2023-02-13T06:23:24;7.10;99.90
13606;DHT22;6874;52.084;5.090;2023-02-13T06:25:49;7.10;99.90
13606;DHT22;6874;52.084;5.090;2023-02-13T06:28:15;7.10;99.90
13606;DHT22;6874;52.084;5.090;2023-02-13T06:30:41;7.10;99.90
13606;DHT22;6874;52.084;5.090;2023-02-13T06:33:06;7.10;99.90
13606;DHT22;6874;52.084;5.090;2023-02-13T06:35:32;7.10;99.90
13606;DHT22;6874;52.084;5.090;2023-02-13T06:37:58;7.10;99.90
13606;DHT22;6874;52.084;5.090;2023-02-13T06:40:23;7.20;99.90
13606;DHT22;6874;52.084;5.090;2023-02-13T06:42:49;7.10;99.90
13606;DHT22;6874;52.084;5.090;2023-02-13T06:45:14;7.00;99.90
13606;DHT22;6874;52.084;5.090;2023-02-13T06:47:41;7.10;99.90
13606;DHT22;6874;52.084;5.090;2023-02-13T06:50:08;7.10;99.90
13606;DHT22;6874;52.084;5.090;2023-02-13T06:52:35;7.10;99.90
13606;DHT22;6874;52.084;5.090;2023-02-13T06:55:01;7.10;99.90
13606;DHT22;6874;52.084;5.090;2023-02-13T06:57:26;7.00;99.90
13606;DHT22;6874;52.084;5.090;2023-02-13T06:59:54;7.10;99.90
13606;DHT22;6874;52.084;5.090;2023-02-13T07:02:19;7.10;99.90
13606;DHT22;6874;52.084;5.090;2023-02-13T07:04:45;7.10;99.90
13606;DHT22;6874;52.084;5.090;2023-02-13T07:07:11;7.10;99.90
13606;DHT22;6874;52.084;5.090;2023-02-13T07:09:36;7.10;99.90
13606;DHT22;6874;52.084;5.090;2023-02-13T07:12:03;7.10;99.90
13606;DHT22;6874;52.084;5.090;2023-02-13T07:14:29;7.00;99.90
13606;DHT22;6874;52.084;5.090;2023-02-13T07:16:54;7.00;99.90
13606;DHT22;6874;52.084;5.090;2023-02-13T07:19:21;7.10;99.90
13606;DHT22;6874;52.084;5.090;2023-02-13T07:21:46;7.00;99.90
13606;DHT22;6874;52.084;5.090;2023-02-13T07:24:12;7.00;99.90
13606;DHT22;6874;52.084;5.090;2023-02-13T07:26:37;7.10;99.90
13606;DHT22;6874;52.084;5.090;2023-02-13T07:29:03;7.00;99.90
13606;DHT22;6874;52.084;5.090;2023-02-13T07:31:32;7.00;99.90
13606;DHT22;6874;52.084;5.090;2023-02-13T07:33:58;6.90;99.90
13606;DHT22;6874;52.084;5.090;2023-02-13T07:36:23;6.90;99.90
13606;DHT22;6874;52.084;5.090;2023-02-13T07:38:49;6.90;99.90
13606;DHT22;6874;52.084;5.090;2023-02-13T07:41:14;6.90;99.90
13606;DHT22;6874;52.084;5.090;2023-02-13T07:43:40;6.90;99.90
13606;DHT22;6874;52.084;5.090;2023-02-13T07:46:05;6.90;99.90
13606;DHT22;6874;52.084;5.090;2023-02-13T07:48:31;6.90;99.90
13606;DHT22;6874;52.084;5.090;2023-02-13T07:51:01;6.90;99.90
13606;DHT22;6874;52.084;5.090;2023-02-13T07:53:27;6.90;99.90
13606;DHT22;6874;52.084;5.090;2023-02-13T07:55:53;6.80;99.90
13606;DHT22;6874;52.084;5.090;2023-02-13T07:58:19;6.80;99.90
13606;DHT22;6874;52.084;5.090;2023-02-13T08:00:44;6.80;99.90
13606;DHT22;6874;52.084;5.090;2023-02-13T08:03:10;6.80;99.90
13606;DHT22;6874;52.084;5.090;2023-02-13T08:05:36;6.80;99.90
13606;DHT22;6874;52.084;5.090;2023-02-13T08:08:01;6.80;99.90
13606;DHT22;6874;52.084;5.090;2023-02-13T08:10:27;6.70;99.90
13606;DHT22;6874;52.084;5.090;2023-02-13T08:13:12;6.70;99.90
13606;DHT22;6874;52.084;5.090;2023-02-13T08:15:39;6.80;99.90
13606;DHT22;6874;52.084;5.090;2023-02-13T08:18:04;6.70;99.90
13606;DHT22;6874;52.084;5.090;2023-02-13T08:20:30;6.70;99.90
13606;DHT22;6874;52.084;5.090;2023-02-13T08:23:04;6.70;99.90
13606;DHT22;6874;52.084;5.090;2023-02-13T08:25:30;6.70;99.90
13606;DHT22;6874;52.084;5.090;2023-02-13T08:27:57;6.70;99.90
13606;DHT22;6874;52.084;5.090;2023-02-13T08:30:23;6.70;99.90
13606;DHT22;6874;52.084;5.090;2023-02-13T08:32:48;6.70;99.90
13606;DHT22;6874;52.084;5.090;2023-02-13T08:35:14;6.70;99.90
13606;DHT22;6874;52.084;5.090;2023-02-13T08:37:40;6.70;99.90
13606;DHT22;6874;52.084;5.090;2023-02-13T08:40:06;6.70;99.90
13606;DHT22;6874;52.084;5.090;2023-02-13T08:42:35;6.70;99.90
13606;DHT22;6874;52.084;5.090;2023-02-13T08:45:01;6.70;99.90
13606;DHT22;6874;52.084;5.090;2023-02-13T08:47:26;6.70;99.90
13606;DHT22;6874;52.084;5.090;2023-02-13T08:49:52;6.70;99.90
13606;DHT22;6874;52.084;5.090;2023-02-13T08:52:17;6.70;99.90
13606;DHT22;6874;52.084;5.090;2023-02-13T08:54:43;6.70;99.90
13606;DHT22;6874;52.084;5.090;2023-02-13T08:57:08;6.80;99.90
13606;DHT22;6874;52.084;5.090;2023-02-13T08:59:34;6.80;99.90
13606;DHT22;6874;52.084;5.090;2023-02-13T09:01:59;6.80;99.90
13606;DHT22;6874;52.084;5.090;2023-02-13T09:04:25;6.80;99.90
13606;DHT22;6874;52.084;5.090;2023-02-13T09:06:51;6.80;99.90
13606;DHT22;6874;52.084;5.090;2023-02-13T09:09:18;6.80;99.90
13606;DHT22;6874;52.084;5.090;2023-02-13T09:11:43;6.80;99.90
13606;DHT22;6874;52.084;5.090;2023-02-13T09:14:09;6.80;99.90
13606;DHT22;6874;52.084;5.090;2023-02-13T09:16:35;6.80;99.90
13606;DHT22;6874;52.084;5.090;2023-02-13T09:19:00;6.80;99.90
13606;DHT22;6874;52.084;5.090;2023-02-13T09:21:26;6.80;99.90
13606;DHT22;6874;52.084;5.090;2023-02-13T09:23:51;6.80;99.90
13606;DHT22;6874;52.084;5.090;2023-02-13T09:26:19;6.80;99.90
13606;DHT22;6874;52.084;5.090;2023-02-13T09:28:45;6.80;99.90
13606;DHT22;6874;52.084;5.090;2023-02-13T09:31:13;6.80;99.90
13606;DHT22;6874;52.084;5.090;2023-02-13T09:33:46;6.90;99.90
13606;DHT22;6874;52.084;5.090;2023-02-13T09:36:14;6.90;99.90
13606;DHT22;6874;52.084;5.090;2023-02-13T09:38:41;6.90;99.90
13606;DHT22;6874;52.084;5.090;2023-02-13T09:41:22;6.90;99.90
13606;DHT22;6874;52.084;5.090;2023-02-13T09:46:39;6.90;99.90
13606;DHT22;6874;52.084;5.090;2023-02-13T09:49:10;6.90;99.90
13606;DHT22;6874;52.084;5.090;2023-02-13T09:51:37;6.90;99.90
13606;DHT22;6874;52.084;5.090;2023-02-13T09:54:07;6.90;99.90
13606;DHT22;6874;52.084;5.090;2023-02-13T10:02:44;7.00;99.90
13606;DHT22;6874;52.084;5.090;2023-02-13T10:07:49;7.00;99.90
13606;DHT22;6874;52.084;5.090;2023-02-13T10:12:57;7.00;99.90
13606;DHT22;6874;52.084;5.090;2023-02-13T10:18:45;7.00;99.90
13606;DHT22;6874;52.084;5.090;2023-02-13T10:21:13;7.00;99.90
13606;DHT22;6874;52.084;5.090;2023-02-13T10:23:47;7.00;99.90
13606;DHT22;6874;52.084;5.090;2023-02-13T10:26:26;7.10;99.90
13606;DHT22;6874;52.084;5.090;2023-02-13T10:29:14;7.00;99.90
13606;DHT22;6874;52.084;5.090;2023-02-13T10:32:18;7.10;99.90
13606;DHT22;6874;52.084;5.090;2023-02-13T10:34:47;7.10;99.90
13606;DHT22;6874;52.084;5.090;2023-02-13T10:37:19;7.10;99.90
13606;DHT22;6874;52.084;5.090;2023-02-13T10:39:48;7.10;99.90
13606;DHT22;6874;52.084;5.090;2023-02-13T10:53:29;7.20;99.90
13606;DHT22;6874;52.084;5.090;2023-02-13T10:58:57;7.20;99.90
13606;DHT22;6874;52.084;5.090;2023-02-13T11:01:48;7.20;99.90
13606;DHT22;6874;52.084;5.090;2023-02-13T11:04:18;7.20;99.90
13606;DHT22;6874;52.084;5.090;2023-02-13T11:06:58;7.30;99.90
13606;DHT22;6874;52.084;5.090;2023-02-13T11:09:25;7.30;99.90
13606;DHT22;6874;52.084;5.090;2023-02-13T11:11:51;7.30;99.90
13606;DHT22;6874;52.084;5.090;2023-02-13T11:14:23;7.30;99.90
13606;DHT22;6874;52.084;5.090;2023-02-13T11:17:01;7.30;99.90
13606;DHT22;6874;52.084;5.090;2023-02-13T11:19:46;7.40;99.90
13606;DHT22;6874;52.084;5.090;2023-02-13T11:22:27;7.40;99.90
13606;DHT22;6874;52.084;5.090;2023-02-13T11:25:06;7.40;99.90
13606;DHT22;6874;52.084;5.090;2023-02-13T11:27:34;7.40;99.90
13606;DHT22;6874;52.084;5.090;2023-02-13T11:30:31;7.40;99.90
13606;DHT22;6874;52.084;5.090;2023-02-13T11:33:23;7.50;99.90
13606;DHT22;6874;52.084;5.090;2023-02-13T11:36:07;7.50;99.90
13606;DHT22;6874;52.084;5.090;2023-02-13T11:38:33;7.50;99.90
13606;DHT22;6874;52.084;5.090;2023-02-13T11:41:13;7.50;99.90
13606;DHT22;6874;52.084;5.090;2023-02-13T11:43:46;7.60;99.90
13606;DHT22;6874;52.084;5.090;2023-02-13T11:46:23;7.60;99.90
13606;DHT22;6874;52.084;5.090;2023-02-13T11:49:05;7.60;99.90
13606;DHT22;6874;52.084;5.090;2023-02-13T11:51:58;7.60;99.90
13606;DHT22;6874;52.084;5.090;2023-02-13T11:54:39;7.60;99.90
13606;DHT22;6874;52.084;5.090;2023-02-13T11:57:23;7.70;99.90
13606;DHT22;6874;52.084;5.090;2023-02-13T11:59:51;7.70;99.90
13606;DHT22;6874;52.084;5.090;2023-02-13T12:02:30;7.70;99.90
13606;DHT22;6874;52.084;5.090;2023-02-13T12:07:42;7.80;99.90
13606;DHT22;6874;52.084;5.090;2023-02-13T12:10:21;7.80;99.90
13606;DHT22;6874;52.084;5.090;2023-02-13T12:16:09;7.90;99.90
13606;DHT22;6874;52.084;5.090;2023-02-13T12:18:39;7.90;99.90
13606;DHT22;6874;52.084;5.090;2023-02-13T12:21:40;8.00;99.90
13606;DHT22;6874;52.084;5.090;2023-02-13T12:30:31;8.10;99.90
13606;DHT22;6874;52.084;5.090;2023-02-13T12:36:01;8.30;99.90
13606;DHT22;6874;52.084;5.090;2023-02-13T12:41:02;8.40;99.90
13606;DHT22;6874;52.084;5.090;2023-02-13T12:49:32;8.70;99.90
13606;DHT22;6874;52.084;5.090;2023-02-13T13:01:01;9.20;99.90
13606;DHT22;6874;52.084;5.090;2023-02-13T13:22:56;10.10;99.90
13606;DHT22;6874;52.084;5.090;2023-02-13T13:26:10;10.10;99.90
13606;DHT22;6874;52.084;5.090;2023-02-13T13:28:33;10.20;99.90
13606;DHT22;6874;52.084;5.090;2023-02-13T13:31:02;10.30;99.90
13606;DHT22;6874;52.084;5.090;2023-02-13T13:33:27;10.40;99.90
13606;DHT22;6874;52.084;5.090;2023-02-13T13:39:14;10.60;99.90
13606;DHT22;6874;52.084;5.090;2023-02-13T13:50:11;10.90;99.90
13606;DHT22;6874;52.084;5.090;2023-02-13T13:53:22;11.00;99.90
13606;DHT22;6874;52.084;5.090;2023-02-13T13:58:46;11.10;99.90
13606;DHT22;6874;52.084;5.090;2023-02-13T14:03:47;11.20;99.90
13606;DHT22;6874;52.084;5.090;2023-02-13T14:06:18;11.20;99.90
13606;DHT22;6874;52.084;5.090;2023-02-13T14:11:43;11.30;99.90
13606;DHT22;6874;52.084;5.090;2023-02-13T14:16:52;11.40;99.90
13606;DHT22;6874;52.084;5.090;2023-02-13T14:19:38;11.40;99.90
13606;DHT22;6874;52.084;5.090;2023-02-13T14:24:56;11.40;99.90
13606;DHT22;6874;52.084;5.090;2023-02-13T14:27:29;11.40;99.90
13606;DHT22;6874;52.084;5.090;2023-02-13T14:29:55;11.40;99.90
13606;DHT22;6874;52.084;5.090;2023-02-13T14:32:24;11.50;99.90
13606;DHT22;6874;52.084;5.090;2023-02-13T14:34:58;11.40;99.90
13606;DHT22;6874;52.084;5.090;2023-02-13T14:37:34;11.50;99.90
13606;DHT22;6874;52.084;5.090;2023-02-13T14:40:30;11.50;99.90
13606;DHT22;6874;52.084;5.090;2023-02-13T14:46:23;11.50;99.90
13606;DHT22;6874;52.084;5.090;2023-02-13T14:49:22;11.50;99.90
13606;DHT22;6874;52.084;5.090;2023-02-13T14:52:02;11.50;99.90
13606;DHT22;6874;52.084;5.090;2023-02-13T14:54:49;11.60;99.90
13606;DHT22;6874;52.084;5.090;2023-02-13T14:57:26;11.50;99.90
13606;DHT22;6874;52.084;5.090;2023-02-13T14:59:56;11.60;99.90
13606;DHT22;6874;52.084;5.090;2023-02-13T15:02:32;11.60;99.90
13606;DHT22;6874;52.084;5.090;2023-02-13T15:05:05;11.60;99.90
13606;DHT22;6874;52.084;5.090;2023-02-13T15:07:36;11.50;99.90
13606;DHT22;6874;52.084;5.090;2023-02-13T15:12:58;11.60;99.90
13606;DHT22;6874;52.084;5.090;2023-02-13T15:15:34;11.50;99.90
13606;DHT22;6874;52.084;5.090;2023-02-13T15:18:03;11.50;99.90
13606;DHT22;6874;52.084;5.090;2023-02-13T15:20:33;11.60;99.90
13606;DHT22;6874;52.084;5.090;2023-02-13T15:22:59;11.50;99.90
13606;DHT22;6874;52.084;5.090;2023-02-13T15:25:37;11.50;99.90
13606;DHT22;6874;52.084;5.090;2023-02-13T15:28:05;11.50;99.90
13606;DHT22;6874;52.084;5.090;2023-02-13T15:30:36;11.40;99.90
13606;DHT22;6874;52.084;5.090;2023-02-13T15:35:31;11.40;99.90
13606;DHT22;6874;52.084;5.090;2023-02-13T15:37:58;11.40;99.90
13606;DHT22;6874;52.084;5.090;2023-02-13T15:40:32;11.30;99.90
13606;DHT22;6874;52.084;5.090;2023-02-13T15:43:02;11.30;99.90
13606;DHT22;6874;52.084;5.090;2023-02-13T15:45:28;11.30;99.90
13606;DHT22;6874;52.084;5.090;2023-02-13T15:47:55;11.30;99.90
13606;DHT22;6874;52.084;5.090;2023-02-13T15:50:33;11.20;99.90
13606;DHT22;6874;52.084;5.090;2023-02-13T15:53:02;11.20;99.90
13606;DHT22;6874;52.084;5.090;2023-02-13T15:55:31;11.20;99.90
13606;DHT22;6874;52.084;5.090;2023-02-13T15:57:59;11.20;99.90
13606;DHT22;6874;52.084;5.090;2023-02-13T16:00:28;11.10;99.90
13606;DHT22;6874;52.084;5.090;2023-02-13T16:02:56;11.10;99.90
13606;DHT22;6874;52.084;5.090;2023-02-13T16:05:23;11.10;99.90
13606;DHT22;6874;52.084;5.090;2023-02-13T16:07:51;11.10;99.90
13606;DHT22;6874;52.084;5.090;2023-02-13T16:10:32;11.00;99.90
13606;DHT22;6874;52.084;5.090;2023-02-13T16:12:59;11.00;99.90
13606;DHT22;6874;52.084;5.090;2023-02-13T16:15:28;11.00;99.90
13606;DHT22;6874;52.084;5.090;2023-02-13T16:17:54;10.90;99.90
13606;DHT22;6874;52.084;5.090;2023-02-13T16:20:23;10.90;99.90
13606;DHT22;6874;52.084;5.090;2023-02-13T16:23:00;10.90;99.90
13606;DHT22;6874;52.084;5.090;2023-02-13T16:25:32;10.80;99.90
13606;DHT22;6874;52.084;5.090;2023-02-13T16:28:17;10.80;99.90
13606;DHT22;6874;52.084;5.090;2023-02-13T16:30:58;10.80;99.90
13606;DHT22;6874;52.084;5.090;2023-02-13T16:36:17;10.70;99.90
13606;DHT22;6874;52.084;5.090;2023-02-13T16:38:45;10.70;99.90
13606;DHT22;6874;52.084;5.090;2023-02-13T16:51:32;10.50;99.90
13606;DHT22;6874;52.084;5.090;2023-02-13T16:53:59;10.50;99.90
13606;DHT22;6874;52.084;5.090;2023-02-13T16:56:26;10.40;99.90
13606;DHT22;6874;52.084;5.090;2023-02-13T16:59:04;10.40;99.90
13606;DHT22;6874;52.084;5.090;2023-02-13T17:01:30;10.30;99.90
13606;DHT22;6874;52.084;5.090;2023-02-13T17:03:55;10.30;99.90
13606;DHT22;6874;52.084;5.090;2023-02-13T17:06:23;10.20;99.90
13606;DHT22;6874;52.084;5.090;2023-02-13T17:08:51;10.20;99.90
13606;DHT22;6874;52.084;5.090;2023-02-13T17:11:17;10.20;99.90
13606;DHT22;6874;52.084;5.090;2023-02-13T17:13:43;10.10;99.90
13606;DHT22;6874;52.084;5.090;2023-02-13T17:16:09;10.10;99.90
13606;DHT22;6874;52.084;5.090;2023-02-13T17:18:34;10.10;99.90
13606;DHT22;6874;52.084;5.090;2023-02-13T17:21:00;10.00;99.90
13606;DHT22;6874;52.084;5.090;2023-02-13T17:23:25;10.00;99.90
13606;DHT22;6874;52.084;5.090;2023-02-13T17:25:52;9.90;99.90
13606;DHT22;6874;52.084;5.090;2023-02-13T17:28:21;9.90;99.90
13606;DHT22;6874;52.084;5.090;2023-02-13T17:30:51;9.80;99.90
13606;DHT22;6874;52.084;5.090;2023-02-13T17:33:24;9.80;99.90
13606;DHT22;6874;52.084;5.090;2023-02-13T17:35:51;9.80;99.90
13606;DHT22;6874;52.084;5.090;2023-02-13T17:38:17;9.70;99.90
13606;DHT22;6874;52.084;5.090;2023-02-13T17:40:43;9.70;99.90
13606;DHT22;6874;52.084;5.090;2023-02-13T17:43:10;9.60;99.90
13606;DHT22;6874;52.084;5.090;2023-02-13T17:45:37;9.50;99.90
13606;DHT22;6874;52.084;5.090;2023-02-13T17:48:03;9.50;99.90
13606;DHT22;6874;52.084;5.090;2023-02-13T17:50:30;9.50;99.90
13606;DHT22;6874;52.084;5.090;2023-02-13T17:52:57;9.40;99.90
13606;DHT22;6874;52.084;5.090;2023-02-13T17:55:27;9.40;99.90
13606;DHT22;6874;52.084;5.090;2023-02-13T17:57:55;9.40;99.90
13606;DHT22;6874;52.084;5.090;2023-02-13T18:00:22;9.30;99.90
13606;DHT22;6874;52.084;5.090;2023-02-13T18:02:49;9.30;99.90
13606;DHT22;6874;52.084;5.090;2023-02-13T18:05:16;9.20;99.90
13606;DHT22;6874;52.084;5.090;2023-02-13T18:07:42;9.20;99.90
13606;DHT22;6874;52.084;5.090;2023-02-13T18:10:13;9.10;99.90
13606;DHT22;6874;52.084;5.090;2023-02-13T18:12:38;9.20;99.90
13606;DHT22;6874;52.084;5.090;2023-02-13T18:15:04;9.10;99.90
13606;DHT22;6874;52.084;5.090;2023-02-13T18:17:30;9.00;99.90
13606;DHT22;6874;52.084;5.090;2023-02-13T18:19:56;8.90;99.90
13606;DHT22;6874;52.084;5.090;2023-02-13T18:22:22;8.90;99.90
13606;DHT22;6874;52.084;5.090;2023-02-13T18:24:48;8.90;99.90
13606;DHT22;6874;52.084;5.090;2023-02-13T18:27:15;9.00;99.90
13606;DHT22;6874;52.084;5.090;2023-02-13T18:29:41;8.80;99.90
13606;DHT22;6874;52.084;5.090;2023-02-13T18:32:07;8.80;99.90
13606;DHT22;6874;52.084;5.090;2023-02-13T18:34:34;8.80;99.90
13606;DHT22;6874;52.084;5.090;2023-02-13T18:36:59;8.70;99.90
13606;DHT22;6874;52.084;5.090;2023-02-13T18:39:25;8.70;99.90
13606;DHT22;6874;52.084;5.090;2023-02-13T18:41:51;8.70;99.90
13606;DHT22;6874;52.084;5.090;2023-02-13T18:44:16;8.60;99.90
13606;DHT22;6874;52.084;5.090;2023-02-13T18:46:42;8.60;99.90
13606;DHT22;6874;52.084;5.090;2023-02-13T18:49:09;8.60;99.90
13606;DHT22;6874;52.084;5.090;2023-02-13T18:51:37;8.60;99.90
13606;DHT22;6874;52.084;5.090;2023-02-13T18:54:03;8.50;99.90
13606;DHT22;6874;52.084;5.090;2023-02-13T18:56:29;8.50;99.90
13606;DHT22;6874;52.084;5.090;2023-02-13T18:58:54;8.50;99.90
13606;DHT22;6874;52.084;5.090;2023-02-13T19:01:21;8.50;99.90
13606;DHT22;6874;52.084;5.090;2023-02-13T19:03:48;8.40;99.90
13606;DHT22;6874;52.084;5.090;2023-02-13T19:06:17;8.40;99.90
13606;DHT22;6874;52.084;5.090;2023-02-13T19:08:43;8.50;99.90
13606;DHT22;6874;52.084;5.090;2023-02-13T19:11:11;8.40;99.90